Weather at Eliporto militare

Public forecast

Using degrees Celsius for public forecast. Weather courtesy of forecast.io.

Closest aviation weather report (METAR) to Eliporto militare

Report is more than 6 hours old.

Closest report is Taranto-Grottaglie "Marcello Arlotta" Airport, 6.5 nm (12.0 km) ENE. Retrieved 2021/09/19 17:50 UTC (7 hours ago):

LIBG 191750Z 13003KT 090V180 CAVOK 27/19 Q1011

Closest aviation forecast (TAF) to Eliporto militare

Forecast is more than 12 hours old.

Closest forecast is Taranto-Grottaglie "Marcello Arlotta" Airport, 6.5 nm (12.0 km) ENE. Retrieved 2017/11/11 18:24 UTC (4 years ago):

TAF TAF LIBG 111917Z 1118/1206 CNL